sensor_id;sensor_type;location;lat;lon;timestamp;temperature;humidity
23609;DHT22;11982;50.810;4.442;2023-03-14T00:00:48;11.00;99.90
23609;DHT22;11982;50.810;4.442;2023-03-14T00:03:14;11.00;99.90
23609;DHT22;11982;50.810;4.442;2023-03-14T00:05:39;10.90;99.90
23609;DHT22;11982;50.810;4.442;2023-03-14T00:08:06;11.00;99.90
23609;DHT22;11982;50.810;4.442;2023-03-14T00:10:31;10.90;99.90
23609;DHT22;11982;50.810;4.442;2023-03-14T00:12:57;10.80;99.90
23609;DHT22;11982;50.810;4.442;2023-03-14T00:15:26;10.80;99.90
23609;DHT22;11982;50.810;4.442;2023-03-14T00:17:52;10.80;99.90
23609;DHT22;11982;50.810;4.442;2023-03-14T00:20:18;10.60;99.90
23609;DHT22;11982;50.810;4.442;2023-03-14T00:22:43;10.60;99.90
23609;DHT22;11982;50.810;4.442;2023-03-14T00:25:10;10.60;99.90
23609;DHT22;11982;50.810;4.442;2023-03-14T00:27:36;10.60;99.90
23609;DHT22;11982;50.810;4.442;2023-03-14T00:30:03;10.60;99.90
23609;DHT22;11982;50.810;4.442;2023-03-14T00:32:29;10.60;99.90
23609;DHT22;11982;50.810;4.442;2023-03-14T00:34:55;10.60;99.90
23609;DHT22;11982;50.810;4.442;2023-03-14T00:37:20;10.60;99.90
23609;DHT22;11982;50.810;4.442;2023-03-14T00:39:46;10.60;99.90
23609;DHT22;11982;50.810;4.442;2023-03-14T00:42:12;10.60;99.90
23609;DHT22;11982;50.810;4.442;2023-03-14T00:44:37;10.60;99.90
23609;DHT22;11982;50.810;4.442;2023-03-14T00:47:03;10.60;99.90
23609;DHT22;11982;50.810;4.442;2023-03-14T00:49:29;10.70;99.90
23609;DHT22;11982;50.810;4.442;2023-03-14T00:51:54;10.70;99.90
23609;DHT22;11982;50.810;4.442;2023-03-14T00:54:20;10.70;99.90
23609;DHT22;11982;50.810;4.442;2023-03-14T00:56:46;10.80;99.90
23609;DHT22;11982;50.810;4.442;2023-03-14T00:59:12;10.80;99.90
23609;DHT22;11982;50.810;4.442;2023-03-14T01:01:39;10.80;99.90
23609;DHT22;11982;50.810;4.442;2023-03-14T01:04:05;10.70;99.90
23609;DHT22;11982;50.810;4.442;2023-03-14T01:06:30;10.70;99.90
23609;DHT22;11982;50.810;4.442;2023-03-14T01:08:57;10.70;99.90
23609;DHT22;11982;50.810;4.442;2023-03-14T01:11:25;10.70;99.90
23609;DHT22;11982;50.810;4.442;2023-03-14T01:13:52;10.80;99.90
23609;DHT22;11982;50.810;4.442;2023-03-14T01:16:19;10.80;99.90
23609;DHT22;11982;50.810;4.442;2023-03-14T01:18:45;10.70;99.90
23609;DHT22;11982;50.810;4.442;2023-03-14T01:21:26;10.80;99.90
23609;DHT22;11982;50.810;4.442;2023-03-14T01:23:53;10.70;99.90
23609;DHT22;11982;50.810;4.442;2023-03-14T01:26:21;10.80;99.90
23609;DHT22;11982;50.810;4.442;2023-03-14T01:28:49;10.70;99.90
23609;DHT22;11982;50.810;4.442;2023-03-14T01:31:15;10.60;99.90
23609;DHT22;11982;50.810;4.442;2023-03-14T01:33:41;10.50;99.90
23609;DHT22;11982;50.810;4.442;2023-03-14T01:36:08;10.40;99.90
23609;DHT22;11982;50.810;4.442;2023-03-14T01:38:36;10.30;99.90
23609;DHT22;11982;50.810;4.442;2023-03-14T01:41:02;10.30;99.90
23609;DHT22;11982;50.810;4.442;2023-03-14T01:43:28;10.20;99.90
23609;DHT22;11982;50.810;4.442;2023-03-14T01:48:53;10.20;99.90
23609;DHT22;11982;50.810;4.442;2023-03-14T01:51:31;10.20;99.90
23609;DHT22;11982;50.810;4.442;2023-03-14T01:54:07;10.20;99.90
23609;DHT22;11982;50.810;4.442;2023-03-14T01:56:34;10.00;99.90
23609;DHT22;11982;50.810;4.442;2023-03-14T01:59:01;9.90;99.90
23609;DHT22;11982;50.810;4.442;2023-03-14T02:01:29;9.70;99.90
23609;DHT22;11982;50.810;4.442;2023-03-14T02:03:59;9.60;99.90
23609;DHT22;11982;50.810;4.442;2023-03-14T02:06:32;9.50;99.90
23609;DHT22;11982;50.810;4.442;2023-03-14T02:09:00;9.30;99.90
23609;DHT22;11982;50.810;4.442;2023-03-14T02:11:28;9.20;99.90
23609;DHT22;11982;50.810;4.442;2023-03-14T02:13:56;9.20;99.90
23609;DHT22;11982;50.810;4.442;2023-03-14T02:16:24;9.20;99.90
23609;DHT22;11982;50.810;4.442;2023-03-14T02:18:50;9.20;99.90
23609;DHT22;11982;50.810;4.442;2023-03-14T02:21:48;9.10;99.90
23609;DHT22;11982;50.810;4.442;2023-03-14T02:24:30;9.10;99.90
23609;DHT22;11982;50.810;4.442;2023-03-14T02:29:39;9.00;99.90
23609;DHT22;11982;50.810;4.442;2023-03-14T02:32:06;9.00;99.90
23609;DHT22;11982;50.810;4.442;2023-03-14T02:34:33;9.00;99.90
23609;DHT22;11982;50.810;4.442;2023-03-14T02:37:00;9.10;99.90
23609;DHT22;11982;50.810;4.442;2023-03-14T02:39:35;9.10;99.90
23609;DHT22;11982;50.810;4.442;2023-03-14T02:42:02;9.00;99.90
23609;DHT22;11982;50.810;4.442;2023-03-14T02:44:27;9.10;99.90
23609;DHT22;11982;50.810;4.442;2023-03-14T02:46:53;9.10;99.90
23609;DHT22;11982;50.810;4.442;2023-03-14T02:49:19;9.10;99.90
23609;DHT22;11982;50.810;4.442;2023-03-14T02:51:45;9.10;99.90
23609;DHT22;11982;50.810;4.442;2023-03-14T02:54:11;9.20;99.90
23609;DHT22;11982;50.810;4.442;2023-03-14T02:56:38;9.20;99.90
23609;DHT22;11982;50.810;4.442;2023-03-14T02:59:04;9.20;99.90
23609;DHT22;11982;50.810;4.442;2023-03-14T03:01:30;9.30;99.90
23609;DHT22;11982;50.810;4.442;2023-03-14T03:03:56;9.30;99.90
23609;DHT22;11982;50.810;4.442;2023-03-14T03:06:21;9.30;99.90
23609;DHT22;11982;50.810;4.442;2023-03-14T03:08:47;9.40;99.90
23609;DHT22;11982;50.810;4.442;2023-03-14T03:11:13;9.40;99.90
23609;DHT22;11982;50.810;4.442;2023-03-14T03:13:39;9.40;99.90
23609;DHT22;11982;50.810;4.442;2023-03-14T03:16:04;9.40;99.90
23609;DHT22;11982;50.810;4.442;2023-03-14T03:18:30;9.40;99.90
23609;DHT22;11982;50.810;4.442;2023-03-14T03:21:00;9.40;99.90
23609;DHT22;11982;50.810;4.442;2023-03-14T03:23:26;9.40;99.90
23609;DHT22;11982;50.810;4.442;2023-03-14T03:25:51;9.40;99.90
23609;DHT22;11982;50.810;4.442;2023-03-14T03:28:18;9.40;99.90
23609;DHT22;11982;50.810;4.442;2023-03-14T03:30:44;9.50;99.90
23609;DHT22;11982;50.810;4.442;2023-03-14T03:33:11;9.40;99.90
23609;DHT22;11982;50.810;4.442;2023-03-14T03:35:44;9.50;99.90
23609;DHT22;11982;50.810;4.442;2023-03-14T03:38:11;9.50;99.90
23609;DHT22;11982;50.810;4.442;2023-03-14T03:40:37;9.50;99.90
23609;DHT22;11982;50.810;4.442;2023-03-14T03:43:02;9.50;99.90
23609;DHT22;11982;50.810;4.442;2023-03-14T03:45:29;9.40;99.90
23609;DHT22;11982;50.810;4.442;2023-03-14T03:47:55;9.30;99.90
23609;DHT22;11982;50.810;4.442;2023-03-14T03:50:21;9.30;99.90
23609;DHT22;11982;50.810;4.442;2023-03-14T03:52:47;9.40;99.90
23609;DHT22;11982;50.810;4.442;2023-03-14T03:55:13;9.40;99.90
23609;DHT22;11982;50.810;4.442;2023-03-14T03:57:38;9.40;99.90
23609;DHT22;11982;50.810;4.442;2023-03-14T04:00:05;9.30;99.90
23609;DHT22;11982;50.810;4.442;2023-03-14T04:02:32;9.30;99.90
23609;DHT22;11982;50.810;4.442;2023-03-14T04:04:57;9.30;99.90
23609;DHT22;11982;50.810;4.442;2023-03-14T04:07:23;9.40;99.90
23609;DHT22;11982;50.810;4.442;2023-03-14T04:09:50;9.30;99.90
23609;DHT22;11982;50.810;4.442;2023-03-14T04:12:15;9.30;99.90
23609;DHT22;11982;50.810;4.442;2023-03-14T04:14:41;9.30;99.90
23609;DHT22;11982;50.810;4.442;2023-03-14T04:17:07;9.30;99.90
23609;DHT22;11982;50.810;4.442;2023-03-14T04:19:33;9.40;99.90
23609;DHT22;11982;50.810;4.442;2023-03-14T04:21:59;9.40;99.90
23609;DHT22;11982;50.810;4.442;2023-03-14T04:24:25;9.40;99.90
23609;DHT22;11982;50.810;4.442;2023-03-14T04:26:50;9.40;99.90
23609;DHT22;11982;50.810;4.442;2023-03-14T04:29:16;9.40;99.90
23609;DHT22;11982;50.810;4.442;2023-03-14T04:31:42;9.40;99.90
23609;DHT22;11982;50.810;4.442;2023-03-14T04:34:07;9.40;99.90
23609;DHT22;11982;50.810;4.442;2023-03-14T04:36:33;9.50;99.90
23609;DHT22;11982;50.810;4.442;2023-03-14T04:38:59;9.40;99.90
23609;DHT22;11982;50.810;4.442;2023-03-14T04:41:24;9.40;99.90
23609;DHT22;11982;50.810;4.442;2023-03-14T04:43:50;9.50;99.90
23609;DHT22;11982;50.810;4.442;2023-03-14T04:46:16;9.50;99.90
23609;DHT22;11982;50.810;4.442;2023-03-14T04:48:41;9.50;99.90
23609;DHT22;11982;50.810;4.442;2023-03-14T04:51:07;9.50;99.90
23609;DHT22;11982;50.810;4.442;2023-03-14T04:53:33;9.60;99.90
23609;DHT22;11982;50.810;4.442;2023-03-14T04:55:59;9.50;99.90
23609;DHT22;11982;50.810;4.442;2023-03-14T04:58:25;9.50;99.90
23609;DHT22;11982;50.810;4.442;2023-03-14T05:00:51;9.50;99.90
23609;DHT22;11982;50.810;4.442;2023-03-14T05:03:18;9.50;99.90
23609;DHT22;11982;50.810;4.442;2023-03-14T05:05:44;9.50;99.90
23609;DHT22;11982;50.810;4.442;2023-03-14T05:08:10;9.50;99.90
23609;DHT22;11982;50.810;4.442;2023-03-14T05:10:36;9.50;99.90
23609;DHT22;11982;50.810;4.442;2023-03-14T05:13:01;9.50;99.90
23609;DHT22;11982;50.810;4.442;2023-03-14T05:15:27;9.60;99.90
23609;DHT22;11982;50.810;4.442;2023-03-14T05:17:53;9.60;99.90
23609;DHT22;11982;50.810;4.442;2023-03-14T05:20:20;9.60;99.90
23609;DHT22;11982;50.810;4.442;2023-03-14T05:22:46;9.60;99.90
23609;DHT22;11982;50.810;4.442;2023-03-14T05:25:12;9.60;99.90
23609;DHT22;11982;50.810;4.442;2023-03-14T05:27:37;9.60;99.90
23609;DHT22;11982;50.810;4.442;2023-03-14T05:30:04;9.70;99.90
23609;DHT22;11982;50.810;4.442;2023-03-14T05:32:31;9.60;99.90
23609;DHT22;11982;50.810;4.442;2023-03-14T05:34:58;9.70;99.90
23609;DHT22;11982;50.810;4.442;2023-03-14T05:37:28;9.60;99.90
23609;DHT22;11982;50.810;4.442;2023-03-14T05:39:53;9.60;99.90
23609;DHT22;11982;50.810;4.442;2023-03-14T05:42:19;9.70;99.90
23609;DHT22;11982;50.810;4.442;2023-03-14T05:44:45;9.60;99.90
23609;DHT22;11982;50.810;4.442;2023-03-14T05:47:11;9.70;99.90
23609;DHT22;11982;50.810;4.442;2023-03-14T05:49:36;9.70;99.90
23609;DHT22;11982;50.810;4.442;2023-03-14T05:52:02;9.70;99.90
23609;DHT22;11982;50.810;4.442;2023-03-14T05:54:28;9.60;99.90
23609;DHT22;11982;50.810;4.442;2023-03-14T05:56:54;9.70;99.90
23609;DHT22;11982;50.810;4.442;2023-03-14T05:59:19;9.70;99.90
23609;DHT22;11982;50.810;4.442;2023-03-14T06:01:45;9.70;99.90
23609;DHT22;11982;50.810;4.442;2023-03-14T06:04:11;9.70;99.90
23609;DHT22;11982;50.810;4.442;2023-03-14T06:06:36;9.70;99.90
23609;DHT22;11982;50.810;4.442;2023-03-14T06:09:02;9.70;99.90
23609;DHT22;11982;50.810;4.442;2023-03-14T06:11:28;9.70;99.90
23609;DHT22;11982;50.810;4.442;2023-03-14T06:13:53;9.70;99.90
23609;DHT22;11982;50.810;4.442;2023-03-14T06:16:19;9.80;99.90
23609;DHT22;11982;50.810;4.442;2023-03-14T06:18:45;9.70;99.90
23609;DHT22;11982;50.810;4.442;2023-03-14T06:21:12;9.70;99.90
23609;DHT22;11982;50.810;4.442;2023-03-14T06:23:38;9.80;99.90
23609;DHT22;11982;50.810;4.442;2023-03-14T06:26:04;9.80;99.90
23609;DHT22;11982;50.810;4.442;2023-03-14T06:28:30;9.80;99.90
23609;DHT22;11982;50.810;4.442;2023-03-14T06:30:56;9.80;99.90
23609;DHT22;11982;50.810;4.442;2023-03-14T06:33:21;9.70;99.90
23609;DHT22;11982;50.810;4.442;2023-03-14T06:35:47;9.70;99.90
23609;DHT22;11982;50.810;4.442;2023-03-14T06:38:13;9.80;99.90
23609;DHT22;11982;50.810;4.442;2023-03-14T06:40:38;9.80;99.90
23609;DHT22;11982;50.810;4.442;2023-03-14T06:43:04;9.70;99.90
23609;DHT22;11982;50.810;4.442;2023-03-14T06:45:30;9.70;99.90
23609;DHT22;11982;50.810;4.442;2023-03-14T06:47:55;9.70;99.90
23609;DHT22;11982;50.810;4.442;2023-03-14T06:50:21;9.70;99.90
23609;DHT22;11982;50.810;4.442;2023-03-14T06:52:48;9.70;99.90
23609;DHT22;11982;50.810;4.442;2023-03-14T06:55:15;9.70;99.90
23609;DHT22;11982;50.810;4.442;2023-03-14T06:57:40;9.50;99.90
23609;DHT22;11982;50.810;4.442;2023-03-14T07:00:08;8.90;99.90
23609;DHT22;11982;50.810;4.442;2023-03-14T07:02:34;8.80;99.90
23609;DHT22;11982;50.810;4.442;2023-03-14T07:04:59;8.50;99.90
23609;DHT22;11982;50.810;4.442;2023-03-14T07:07:26;8.40;99.90
23609;DHT22;11982;50.810;4.442;2023-03-14T07:09:52;8.30;99.90
23609;DHT22;11982;50.810;4.442;2023-03-14T07:12:17;8.00;99.90
23609;DHT22;11982;50.810;4.442;2023-03-14T07:14:43;8.00;99.90
23609;DHT22;11982;50.810;4.442;2023-03-14T07:17:09;7.90;99.90
23609;DHT22;11982;50.810;4.442;2023-03-14T07:19:35;7.70;99.90
23609;DHT22;11982;50.810;4.442;2023-03-14T07:22:00;7.60;99.90
23609;DHT22;11982;50.810;4.442;2023-03-14T07:24:26;7.40;99.90
23609;DHT22;11982;50.810;4.442;2023-03-14T07:26:52;7.30;99.90
23609;DHT22;11982;50.810;4.442;2023-03-14T07:29:18;7.30;99.90
23609;DHT22;11982;50.810;4.442;2023-03-14T07:31:43;7.20;99.90
23609;DHT22;11982;50.810;4.442;2023-03-14T07:34:09;7.20;99.90
23609;DHT22;11982;50.810;4.442;2023-03-14T07:36:34;7.10;99.90
23609;DHT22;11982;50.810;4.442;2023-03-14T07:39:00;7.10;99.90
23609;DHT22;11982;50.810;4.442;2023-03-14T07:41:26;7.10;99.90
23609;DHT22;11982;50.810;4.442;2023-03-14T07:43:51;7.10;99.90
23609;DHT22;11982;50.810;4.442;2023-03-14T07:46:17;7.10;99.90
23609;DHT22;11982;50.810;4.442;2023-03-14T07:48:44;7.10;99.90
23609;DHT22;11982;50.810;4.442;2023-03-14T07:51:10;7.10;99.90
23609;DHT22;11982;50.810;4.442;2023-03-14T07:53:36;7.20;99.90
23609;DHT22;11982;50.810;4.442;2023-03-14T07:56:02;7.30;99.90
23609;DHT22;11982;50.810;4.442;2023-03-14T07:58:28;7.20;99.90
23609;DHT22;11982;50.810;4.442;2023-03-14T08:00:53;7.10;99.90
23609;DHT22;11982;50.810;4.442;2023-03-14T08:03:19;7.20;99.90
23609;DHT22;11982;50.810;4.442;2023-03-14T08:05:48;7.20;99.90
23609;DHT22;11982;50.810;4.442;2023-03-14T08:08:13;7.00;99.90
23609;DHT22;11982;50.810;4.442;2023-03-14T08:10:39;7.10;99.90
23609;DHT22;11982;50.810;4.442;2023-03-14T08:13:05;7.10;99.90
23609;DHT22;11982;50.810;4.442;2023-03-14T08:15:31;7.10;99.90
23609;DHT22;11982;50.810;4.442;2023-03-14T08:17:57;7.10;99.90
23609;DHT22;11982;50.810;4.442;2023-03-14T08:20:25;7.10;99.90
23609;DHT22;11982;50.810;4.442;2023-03-14T08:22:51;7.20;99.90
23609;DHT22;11982;50.810;4.442;2023-03-14T08:25:17;7.10;99.90
23609;DHT22;11982;50.810;4.442;2023-03-14T08:27:43;7.10;99.90
23609;DHT22;11982;50.810;4.442;2023-03-14T08:30:11;7.00;99.90
23609;DHT22;11982;50.810;4.442;2023-03-14T08:32:37;6.90;99.90
23609;DHT22;11982;50.810;4.442;2023-03-14T08:35:04;7.00;99.90
23609;DHT22;11982;50.810;4.442;2023-03-14T08:37:34;6.90;99.90
23609;DHT22;11982;50.810;4.442;2023-03-14T08:40:00;6.90;99.90
23609;DHT22;11982;50.810;4.442;2023-03-14T08:42:26;6.90;99.90
23609;DHT22;11982;50.810;4.442;2023-03-14T08:44:52;6.90;99.90
23609;DHT22;11982;50.810;4.442;2023-03-14T08:47:19;6.90;99.90
23609;DHT22;11982;50.810;4.442;2023-03-14T08:49:44;6.80;99.90
23609;DHT22;11982;50.810;4.442;2023-03-14T08:52:10;6.60;99.90
23609;DHT22;11982;50.810;4.442;2023-03-14T08:54:36;6.50;99.90
23609;DHT22;11982;50.810;4.442;2023-03-14T08:57:02;6.50;99.90
23609;DHT22;11982;50.810;4.442;2023-03-14T08:59:27;6.50;99.90
23609;DHT22;11982;50.810;4.442;2023-03-14T09:01:53;6.50;99.90
23609;DHT22;11982;50.810;4.442;2023-03-14T09:04:20;6.40;99.90
23609;DHT22;11982;50.810;4.442;2023-03-14T09:06:46;6.30;99.90
23609;DHT22;11982;50.810;4.442;2023-03-14T09:09:11;6.30;99.90
23609;DHT22;11982;50.810;4.442;2023-03-14T09:11:39;6.40;99.90
23609;DHT22;11982;50.810;4.442;2023-03-14T09:14:04;6.40;99.90
23609;DHT22;11982;50.810;4.442;2023-03-14T09:16:30;6.30;99.90
23609;DHT22;11982;50.810;4.442;2023-03-14T09:18:56;6.30;99.90
23609;DHT22;11982;50.810;4.442;2023-03-14T09:21:25;6.40;99.90
23609;DHT22;11982;50.810;4.442;2023-03-14T09:23:51;6.40;99.90
23609;DHT22;11982;50.810;4.442;2023-03-14T09:26:17;6.40;99.90
23609;DHT22;11982;50.810;4.442;2023-03-14T09:28:43;6.50;99.90
23609;DHT22;11982;50.810;4.442;2023-03-14T09:31:10;6.50;99.90
23609;DHT22;11982;50.810;4.442;2023-03-14T09:33:37;6.50;99.90
23609;DHT22;11982;50.810;4.442;2023-03-14T09:36:03;6.60;99.90
23609;DHT22;11982;50.810;4.442;2023-03-14T09:38:29;6.70;99.90
23609;DHT22;11982;50.810;4.442;2023-03-14T09:40:57;6.60;99.90
23609;DHT22;11982;50.810;4.442;2023-03-14T09:43:24;6.60;99.90
23609;DHT22;11982;50.810;4.442;2023-03-14T09:45:52;6.40;99.90
23609;DHT22;11982;50.810;4.442;2023-03-14T09:48:22;6.50;99.90
23609;DHT22;11982;50.810;4.442;2023-03-14T09:50:52;6.40;99.90
23609;DHT22;11982;50.810;4.442;2023-03-14T09:53:38;6.30;99.90
23609;DHT22;11982;50.810;4.442;2023-03-14T09:56:13;6.40;99.90
23609;DHT22;11982;50.810;4.442;2023-03-14T09:58:41;6.40;99.90
23609;DHT22;11982;50.810;4.442;2023-03-14T10:01:11;6.50;99.90
23609;DHT22;11982;50.810;4.442;2023-03-14T10:03:38;6.40;99.90
23609;DHT22;11982;50.810;4.442;2023-03-14T10:06:11;6.40;99.90
23609;DHT22;11982;50.810;4.442;2023-03-14T10:08:44;6.50;99.90
23609;DHT22;11982;50.810;4.442;2023-03-14T10:11:15;6.50;99.90
23609;DHT22;11982;50.810;4.442;2023-03-14T10:14:07;6.50;99.90
23609;DHT22;11982;50.810;4.442;2023-03-14T10:16:44;6.60;99.90
23609;DHT22;11982;50.810;4.442;2023-03-14T10:19:12;6.90;99.90
23609;DHT22;11982;50.810;4.442;2023-03-14T10:21:51;7.00;99.90
23609;DHT22;11982;50.810;4.442;2023-03-14T10:26:52;7.10;99.90
23609;DHT22;11982;50.810;4.442;2023-03-14T10:29:18;7.10;99.90
23609;DHT22;11982;50.810;4.442;2023-03-14T10:34:21;6.90;99.90
23609;DHT22;11982;50.810;4.442;2023-03-14T10:36:52;6.70;99.90
23609;DHT22;11982;50.810;4.442;2023-03-14T10:42:01;6.30;99.90
23609;DHT22;11982;50.810;4.442;2023-03-14T10:44:28;6.30;99.90
23609;DHT22;11982;50.810;4.442;2023-03-14T10:47:01;6.30;99.90
23609;DHT22;11982;50.810;4.442;2023-03-14T10:49:35;6.30;99.90
23609;DHT22;11982;50.810;4.442;2023-03-14T10:54:38;6.30;99.90
23609;DHT22;11982;50.810;4.442;2023-03-14T10:57:04;6.20;99.90
23609;DHT22;11982;50.810;4.442;2023-03-14T10:59:39;6.10;99.90
23609;DHT22;11982;50.810;4.442;2023-03-14T11:10:41;6.00;99.90
23609;DHT22;11982;50.810;4.442;2023-03-14T11:18:49;6.10;99.90
23609;DHT22;11982;50.810;4.442;2023-03-14T11:29:31;6.00;99.90
23609;DHT22;11982;50.810;4.442;2023-03-14T11:32:02;5.90;99.90
23609;DHT22;11982;50.810;4.442;2023-03-14T11:34:38;5.80;99.90
23609;DHT22;11982;50.810;4.442;2023-03-14T11:40:00;5.60;99.90
23609;DHT22;11982;50.810;4.442;2023-03-14T11:42:29;5.60;99.90
23609;DHT22;11982;50.810;4.442;2023-03-14T11:44:57;5.50;99.90
23609;DHT22;11982;50.810;4.442;2023-03-14T11:47:34;5.50;99.90
23609;DHT22;11982;50.810;4.442;2023-03-14T11:50:23;5.20;99.90
23609;DHT22;11982;50.810;4.442;2023-03-14T11:52:52;5.20;99.90
23609;DHT22;11982;50.810;4.442;2023-03-14T11:55:35;5.30;99.90
23609;DHT22;11982;50.810;4.442;2023-03-14T11:58:27;5.40;99.90
23609;DHT22;11982;50.810;4.442;2023-03-14T12:00:56;5.20;99.90
23609;DHT22;11982;50.810;4.442;2023-03-14T12:03:38;5.10;99.90
23609;DHT22;11982;50.810;4.442;2023-03-14T12:06:26;5.00;99.90
23609;DHT22;11982;50.810;4.442;2023-03-14T12:08:58;5.00;99.90
23609;DHT22;11982;50.810;4.442;2023-03-14T12:14:33;5.10;99.90
23609;DHT22;11982;50.810;4.442;2023-03-14T12:17:20;5.10;99.90
23609;DHT22;11982;50.810;4.442;2023-03-14T12:19:47;5.20;99.90
23609;DHT22;11982;50.810;4.442;2023-03-14T12:22:32;5.30;99.90
23609;DHT22;11982;50.810;4.442;2023-03-14T12:25:06;5.40;99.90
23609;DHT22;11982;50.810;4.442;2023-03-14T12:33:29;5.60;99.90
23609;DHT22;11982;50.810;4.442;2023-03-14T12:36:02;5.50;99.90
23609;DHT22;11982;50.810;4.442;2023-03-14T12:38:43;5.50;99.90
23609;DHT22;11982;50.810;4.442;2023-03-14T12:41:35;5.40;99.90
23609;DHT22;11982;50.810;4.442;2023-03-14T12:49:49;5.30;99.90
23609;DHT22;11982;50.810;4.442;2023-03-14T12:52:20;5.20;99.90
23609;DHT22;11982;50.810;4.442;2023-03-14T12:54:47;5.10;99.90
23609;DHT22;11982;50.810;4.442;2023-03-14T12:57:36;5.10;99.90
23609;DHT22;11982;50.810;4.442;2023-03-14T13:00:16;5.10;99.90
23609;DHT22;11982;50.810;4.442;2023-03-14T13:02:44;5.20;99.90
23609;DHT22;11982;50.810;4.442;2023-03-14T13:05:19;5.10;99.90
23609;DHT22;11982;50.810;4.442;2023-03-14T13:10:38;5.00;99.90
23609;DHT22;11982;50.810;4.442;2023-03-14T13:15:38;5.10;99.90
23609;DHT22;11982;50.810;4.442;2023-03-14T13:18:41;5.30;99.90
23609;DHT22;11982;50.810;4.442;2023-03-14T13:23:38;5.50;99.90
23609;DHT22;11982;50.810;4.442;2023-03-14T13:26:11;5.30;99.90
23609;DHT22;11982;50.810;4.442;2023-03-14T13:28:38;5.40;99.90
23609;DHT22;11982;50.810;4.442;2023-03-14T13:31:04;5.30;99.90
23609;DHT22;11982;50.810;4.442;2023-03-14T13:33:33;5.40;99.90
23609;DHT22;11982;50.810;4.442;2023-03-14T13:36:03;5.30;99.90
23609;DHT22;11982;50.810;4.442;2023-03-14T13:38:31;5.30;99.90
23609;DHT22;11982;50.810;4.442;2023-03-14T13:40:59;5.30;99.90
23609;DHT22;11982;50.810;4.442;2023-03-14T13:48:28;5.70;99.90
23609;DHT22;11982;50.810;4.442;2023-03-14T13:51:07;5.70;99.90
23609;DHT22;11982;50.810;4.442;2023-03-14T13:53:48;5.80;99.90
23609;DHT22;11982;50.810;4.442;2023-03-14T13:56:19;5.90;99.90
23609;DHT22;11982;50.810;4.442;2023-03-14T13:58:46;6.00;99.90
23609;DHT22;11982;50.810;4.442;2023-03-14T14:01:31;6.10;99.90
23609;DHT22;11982;50.810;4.442;2023-03-14T14:03:59;6.00;99.90
23609;DHT22;11982;50.810;4.442;2023-03-14T14:06:54;6.00;99.90
23609;DHT22;11982;50.810;4.442;2023-03-14T14:09:20;6.00;99.90
23609;DHT22;11982;50.810;4.442;2023-03-14T14:11:50;5.90;99.90
23609;DHT22;11982;50.810;4.442;2023-03-14T14:14:26;5.90;99.90
23609;DHT22;11982;50.810;4.442;2023-03-14T14:16:54;5.90;99.90
23609;DHT22;11982;50.810;4.442;2023-03-14T14:19:22;6.10;99.90
23609;DHT22;11982;50.810;4.442;2023-03-14T14:21:49;6.00;99.90
23609;DHT22;11982;50.810;4.442;2023-03-14T14:24:16;6.20;99.90
23609;DHT22;11982;50.810;4.442;2023-03-14T14:26:47;6.30;99.90
23609;DHT22;11982;50.810;4.442;2023-03-14T14:29:28;6.30;99.90
23609;DHT22;11982;50.810;4.442;2023-03-14T14:32:23;6.40;99.90
23609;DHT22;11982;50.810;4.442;2023-03-14T14:37:23;6.60;99.90
23609;DHT22;11982;50.810;4.442;2023-03-14T14:39:53;6.70;99.90
23609;DHT22;11982;50.810;4.442;2023-03-14T14:42:21;6.60;99.90
23609;DHT22;11982;50.810;4.442;2023-03-14T14:44:50;6.40;99.90
23609;DHT22;11982;50.810;4.442;2023-03-14T14:47:21;6.40;99.90
23609;DHT22;11982;50.810;4.442;2023-03-14T14:49:49;6.40;99.90
23609;DHT22;11982;50.810;4.442;2023-03-14T14:52:18;6.30;99.90
23609;DHT22;11982;50.810;4.442;2023-03-14T14:54:47;6.10;99.90
23609;DHT22;11982;50.810;4.442;2023-03-14T14:57:24;5.80;99.90
23609;DHT22;11982;50.810;4.442;2023-03-14T14:59:51;5.60;99.90
23609;DHT22;11982;50.810;4.442;2023-03-14T15:04:54;5.10;99.90
23609;DHT22;11982;50.810;4.442;2023-03-14T15:07:20;5.00;99.90
23609;DHT22;11982;50.810;4.442;2023-03-14T15:09:45;4.80;99.90
23609;DHT22;11982;50.810;4.442;2023-03-14T15:12:11;4.70;99.90
23609;DHT22;11982;50.810;4.442;2023-03-14T15:14:37;4.70;99.90
23609;DHT22;11982;50.810;4.442;2023-03-14T15:17:02;4.70;99.90
23609;DHT22;11982;50.810;4.442;2023-03-14T15:19:28;4.80;99.90
23609;DHT22;11982;50.810;4.442;2023-03-14T15:21:58;5.00;99.90
23609;DHT22;11982;50.810;4.442;2023-03-14T15:24:24;5.20;99.90
23609;DHT22;11982;50.810;4.442;2023-03-14T15:26:50;5.30;99.90
23609;DHT22;11982;50.810;4.442;2023-03-14T15:29:16;5.60;99.90
23609;DHT22;11982;50.810;4.442;2023-03-14T15:31:42;5.80;99.90
23609;DHT22;11982;50.810;4.442;2023-03-14T15:34:10;6.00;99.90
23609;DHT22;11982;50.810;4.442;2023-03-14T15:36:37;6.30;99.90
23609;DHT22;11982;50.810;4.442;2023-03-14T15:39:05;6.40;99.90
23609;DHT22;11982;50.810;4.442;2023-03-14T15:41:31;6.40;99.90
23609;DHT22;11982;50.810;4.442;2023-03-14T15:43:57;6.60;99.90
23609;DHT22;11982;50.810;4.442;2023-03-14T15:46:23;6.70;99.90
23609;DHT22;11982;50.810;4.442;2023-03-14T15:48:50;6.80;99.90
23609;DHT22;11982;50.810;4.442;2023-03-14T15:51:16;6.90;99.90
23609;DHT22;11982;50.810;4.442;2023-03-14T15:53:41;6.80;99.90
23609;DHT22;11982;50.810;4.442;2023-03-14T15:56:20;6.80;99.90
23609;DHT22;11982;50.810;4.442;2023-03-14T15:58:49;6.80;99.90
23609;DHT22;11982;50.810;4.442;2023-03-14T16:01:16;7.00;99.90
23609;DHT22;11982;50.810;4.442;2023-03-14T16:03:43;7.10;99.90
23609;DHT22;11982;50.810;4.442;2023-03-14T16:06:10;7.20;99.90
23609;DHT22;11982;50.810;4.442;2023-03-14T16:08:36;7.00;99.90
23609;DHT22;11982;50.810;4.442;2023-03-14T16:11:01;6.90;99.90
23609;DHT22;11982;50.810;4.442;2023-03-14T16:13:27;6.80;99.90
23609;DHT22;11982;50.810;4.442;2023-03-14T16:15:58;6.70;99.90
23609;DHT22;11982;50.810;4.442;2023-03-14T16:18:24;6.50;99.90
23609;DHT22;11982;50.810;4.442;2023-03-14T16:20:58;6.40;99.90
23609;DHT22;11982;50.810;4.442;2023-03-14T16:23:25;6.20;99.90
23609;DHT22;11982;50.810;4.442;2023-03-14T16:25:51;6.10;99.90
23609;DHT22;11982;50.810;4.442;2023-03-14T16:28:17;6.00;99.90
23609;DHT22;11982;50.810;4.442;2023-03-14T16:30:43;6.00;99.90
23609;DHT22;11982;50.810;4.442;2023-03-14T16:33:08;5.90;99.90
23609;DHT22;11982;50.810;4.442;2023-03-14T16:35:38;6.00;99.90
23609;DHT22;11982;50.810;4.442;2023-03-14T16:38:04;6.20;99.90
23609;DHT22;11982;50.810;4.442;2023-03-14T16:40:30;6.20;99.90
23609;DHT22;11982;50.810;4.442;2023-03-14T16:42:56;6.10;99.90
23609;DHT22;11982;50.810;4.442;2023-03-14T16:45:22;6.10;99.90
23609;DHT22;11982;50.810;4.442;2023-03-14T16:47:47;6.00;99.90
23609;DHT22;11982;50.810;4.442;2023-03-14T16:50:13;6.00;99.90
23609;DHT22;11982;50.810;4.442;2023-03-14T16:52:39;6.20;99.90
23609;DHT22;11982;50.810;4.442;2023-03-14T16:55:05;6.30;99.90
23609;DHT22;11982;50.810;4.442;2023-03-14T16:57:34;6.30;99.90
23609;DHT22;11982;50.810;4.442;2023-03-14T17:00:00;6.20;99.90
23609;DHT22;11982;50.810;4.442;2023-03-14T17:02:25;6.10;99.90
23609;DHT22;11982;50.810;4.442;2023-03-14T17:04:51;5.90;99.90